Time;durP1;ratioP1;P1;durP2;ratioP2;P2;SDS_P1;SDS_P2;PMS_P1;PMS_P2;Temp;Humidity;BMP_temperature;BMP_pressure;BME280_temperature;BME280_humidity;BME280_pressure;Samples;Min_cycle;Max_cycle;Signal;HPM_P1;HPM_P2
2024/04/12 00:01:17;;;;;;;10.90;7.32;;;;;;;;;;5375829;26;20607;-70
2024/04/12 00:03:43;;;;;;;12.70;7.85;;;;;;;;;;5373921;26;20278;-70
2024/04/12 00:06:15;;;;;;;10.77;7.28;;;;;;;;;;5376199;26;20753;-70
2024/04/12 00:08:47;;;;;;;11.38;7.55;;;;;;;;;;5354674;26;20267;-70
2024/04/12 00:11:18;;;;;;;11.35;7.30;;;;;;;;;;5362906;26;20279;-70
2024/04/12 00:13:53;;;;;;;8.52;6.95;;;;;;;;;;5373968;26;20786;-70
2024/04/12 00:16:24;;;;;;;8.88;6.53;;;;;;;;;;5374770;26;20347;-69
2024/04/12 00:18:58;;;;;;;8.82;6.00;;;;;;;;;;5366283;26;20237;-70
2024/04/12 00:21:23;;;;;;;9.80;6.70;;;;;;;;;;5374315;26;20236;-70
2024/04/12 00:23:53;;;;;;;9.73;6.65;;;;;;;;;;5372486;26;20328;-70
2024/04/12 00:26:18;;;;;;;10.40;7.25;;;;;;;;;;5343806;26;20723;-68
2024/04/12 00:28:46;;;;;;;10.98;7.00;;;;;;;;;;5350641;26;20293;-69
2024/04/12 00:31:13;;;;;;;13.27;7.40;;;;;;;;;;5349363;26;20249;-71
2024/04/12 00:33:40;;;;;;;9.60;7.30;;;;;;;;;;5349834;26;20244;-69
2024/04/12 00:36:07;;;;;;;12.05;7.70;;;;;;;;;;5351012;26;20236;-68
2024/04/12 00:38:35;;;;;;;9.07;6.40;;;;;;;;;;5353932;26;20340;-69
2024/04/12 00:41:11;;;;;;;7.70;6.00;;;;;;;;;;5350003;26;20240;-69
2024/04/12 00:43:38;;;;;;;8.95;6.25;;;;;;;;;;5350543;26;20240;-70
2024/04/12 00:46:04;;;;;;;8.48;6.20;;;;;;;;;;5354566;26;20279;-69
2024/04/12 00:48:29;;;;;;;10.30;7.47;;;;;;;;;;5357454;26;21660;-69
2024/04/12 00:50:54;;;;;;;9.65;6.78;;;;;;;;;;5349173;26;20282;-69
2024/04/12 00:53:22;;;;;;;10.20;7.55;;;;;;;;;;5351958;26;20232;-68
2024/04/12 00:55:59;;;;;;;11.02;7.07;;;;;;;;;;5347113;26;21080;-70
2024/04/12 00:58:27;;;;;;;10.00;6.43;;;;;;;;;;5365648;26;20763;-70
2024/04/12 01:00:52;;;;;;;9.02;6.75;;;;;;;;;;5356510;26;20243;-69
2024/04/12 01:03:18;;;;;;;6.95;5.50;;;;;;;;;;5348113;26;20858;-70
2024/04/12 01:05:43;;;;;;;8.73;6.13;;;;;;;;;;5349956;26;20254;-70
2024/04/12 01:08:08;;;;;;;7.10;5.70;;;;;;;;;;5349540;26;20244;-70
2024/04/12 01:10:36;;;;;;;8.10;6.30;;;;;;;;;;5349861;26;20789;-70
2024/04/12 01:13:02;;;;;;;8.65;6.72;;;;;;;;;;5347493;26;20278;-70
2024/04/12 01:15:32;;;;;;;7.28;6.18;;;;;;;;;;5349358;26;20719;-70
2024/04/12 01:17:57;;;;;;;8.93;6.43;;;;;;;;;;5354269;26;20724;-69
2024/04/12 01:20:24;;;;;;;8.18;6.18;;;;;;;;;;5349651;26;20282;-70
2024/04/12 01:22:50;;;;;;;8.60;6.47;;;;;;;;;;5356619;26;20233;-69
2024/04/12 01:25:15;;;;;;;9.82;6.93;;;;;;;;;;5362496;26;20323;-70
2024/04/12 01:27:41;;;;;;;13.88;7.47;;;;;;;;;;5351898;26;20294;-69
2024/04/12 01:30:06;;;;;;;10.85;7.68;;;;;;;;;;5349405;26;20249;-70
2024/04/12 01:32:33;;;;;;;12.50;6.57;;;;;;;;;;5350038;26;20274;-70
2024/04/12 01:34:58;;;;;;;9.90;6.88;;;;;;;;;;5347458;26;21177;-70
2024/04/12 01:37:23;;;;;;;10.88;6.22;;;;;;;;;;5349020;26;20244;-70
2024/04/12 01:39:48;;;;;;;11.40;7.70;;;;;;;;;;5349421;26;20291;-71
2024/04/12 01:42:16;;;;;;;11.77;7.13;;;;;;;;;;5349304;26;20239;-70
2024/04/12 01:45:13;;;;;;;13.20;8.40;;;;;;;;;;5356351;26;20270;-70
2024/04/12 01:47:34;;;;;;;11.82;7.57;;;;;;;;;;5351333;26;21161;-69
2024/04/12 01:50:01;;;;;;;11.65;7.97;;;;;;;;;;5348988;26;20851;-70
2024/04/12 01:52:26;;;;;;;12.27;7.22;;;;;;;;;;5347642;26;20353;-69
2024/04/12 01:55:05;;;;;;;10.27;6.35;;;;;;;;;;5373852;26;20251;-70
2024/04/12 01:57:30;;;;;;;8.20;5.55;;;;;;;;;;5349272;26;20372;-69
2024/04/12 01:59:55;;;;;;;7.95;5.47;;;;;;;;;;5349147;26;20254;-70
2024/04/12 02:02:21;;;;;;;8.85;4.93;;;;;;;;;;5347398;26;20243;-69
2024/04/12 02:04:51;;;;;;;7.30;4.65;;;;;;;;;;5349948;26;20749;-70
2024/04/12 02:07:16;;;;;;;9.07;5.55;;;;;;;;;;5348955;26;20304;-68
2024/04/12 02:09:41;;;;;;;5.68;4.18;;;;;;;;;;5350691;26;20240;-70
2024/04/12 02:12:07;;;;;;;6.90;4.35;;;;;;;;;;5349009;26;20244;-69
2024/04/12 02:14:32;;;;;;;8.27;5.13;;;;;;;;;;5351180;26;20294;-68
2024/04/12 02:16:58;;;;;;;4.25;3.65;;;;;;;;;;5351059;26;20253;-68
2024/04/12 02:19:25;;;;;;;6.30;4.53;;;;;;;;;;5348127;26;20346;-71
2024/04/12 02:21:50;;;;;;;6.65;4.65;;;;;;;;;;5352280;26;20248;-70
2024/04/12 02:24:18;;;;;;;5.57;4.07;;;;;;;;;;5351040;26;20385;-70
2024/04/12 02:26:46;;;;;;;5.40;4.07;;;;;;;;;;5347615;26;20294;-69
2024/04/12 02:29:11;;;;;;;5.13;4.10;;;;;;;;;;5347884;26;20315;-70
2024/04/12 02:31:36;;;;;;;6.68;4.10;;;;;;;;;;5351148;26;20234;-70
2024/04/12 02:34:02;;;;;;;5.80;4.80;;;;;;;;;;5347384;26;22210;-70
2024/04/12 02:36:30;;;;;;;5.47;4.03;;;;;;;;;;5347856;26;21330;-70
2024/04/12 02:38:55;;;;;;;5.35;4.03;;;;;;;;;;5347882;26;20300;-70
2024/04/12 02:41:21;;;;;;;4.82;3.78;;;;;;;;;;5348667;26;20235;-69
2024/04/12 02:43:51;;;;;;;5.47;3.67;;;;;;;;;;5349496;26;20780;-69
2024/04/12 02:46:17;;;;;;;4.93;3.63;;;;;;;;;;5355637;26;20235;-71
2024/04/12 02:48:47;;;;;;;5.18;3.83;;;;;;;;;;5350758;26;20363;-70
2024/04/12 02:51:13;;;;;;;4.30;3.30;;;;;;;;;;5348804;26;20377;-70
2024/04/12 02:53:39;;;;;;;7.53;3.85;;;;;;;;;;5348629;26;20669;-69
2024/04/12 02:56:11;;;;;;;6.93;4.13;;;;;;;;;;5347234;26;20328;-71
2024/04/12 02:58:40;;;;;;;6.55;4.15;;;;;;;;;;5349676;26;20541;-70
2024/04/12 03:01:10;;;;;;;6.13;4.53;;;;;;;;;;5346224;26;20239;-70
2024/04/12 03:03:36;;;;;;;6.72;3.83;;;;;;;;;;5345031;26;20272;-69
2024/04/12 03:06:05;;;;;;;6.45;3.90;;;;;;;;;;5347639;26;20240;-70
2024/04/12 03:08:32;;;;;;;9.88;4.20;;;;;;;;;;5349599;26;20313;-70
2024/04/12 03:11:10;;;;;;;5.45;3.60;;;;;;;;;;5348859;26;20232;-70
2024/04/12 03:13:36;;;;;;;6.03;4.47;;;;;;;;;;5351005;26;20235;-70
2024/04/12 03:16:03;;;;;;;4.70;3.90;;;;;;;;;;5349138;26;20287;-70
2024/04/12 03:18:29;;;;;;;10.15;4.75;;;;;;;;;;5352171;26;20247;-71
2024/04/12 03:20:55;;;;;;;6.05;4.45;;;;;;;;;;5345981;26;20654;-70
2024/04/12 03:23:20;;;;;;;6.70;3.95;;;;;;;;;;5351447;26;20232;-70
2024/04/12 03:25:45;;;;;;;6.38;4.32;;;;;;;;;;5347867;26;20811;-69
2024/04/12 03:28:10;;;;;;;5.03;4.03;;;;;;;;;;5347067;26;20245;-68
2024/04/12 03:30:40;;;;;;;5.75;4.20;;;;;;;;;;5348525;26;20336;-70
2024/04/12 03:33:05;;;;;;;8.23;4.63;;;;;;;;;;5329860;26;20358;-70
2024/04/12 03:35:33;;;;;;;5.68;4.43;;;;;;;;;;5350908;26;20754;-71
2024/04/12 03:40:45;;;;;;;5.68;4.18;;;;;;;;;;5347163;26;21618;-69
2024/04/12 03:43:10;;;;;;;6.45;4.18;;;;;;;;;;5351239;26;20246;-70
2024/04/12 03:45:35;;;;;;;5.50;3.88;;;;;;;;;;5348746;26;20580;-71
2024/04/12 03:48:13;;;;;;;4.82;3.70;;;;;;;;;;5349872;26;21013;-70
2024/04/12 03:50:41;;;;;;;5.85;4.40;;;;;;;;;;5346769;26;20389;-70
2024/04/12 03:53:15;;;;;;;7.40;4.00;;;;;;;;;;5345237;26;20235;-69
2024/04/12 03:55:44;;;;;;;6.00;4.50;;;;;;;;;;5348119;26;20234;-70
2024/04/12 03:58:10;;;;;;;5.80;4.18;;;;;;;;;;5352358;26;20955;-70
2024/04/12 04:00:38;;;;;;;8.30;4.90;;;;;;;;;;5352591;26;20240;-70
2024/04/12 04:03:09;;;;;;;9.30;4.38;;;;;;;;;;5356706;26;20298;-70
2024/04/12 04:05:34;;;;;;;7.43;5.03;;;;;;;;;;5356341;26;20280;-69
2024/04/12 04:08:00;;;;;;;8.15;4.97;;;;;;;;;;5355289;26;20247;-70
2024/04/12 04:10:25;;;;;;;8.82;5.10;;;;;;;;;;5355700;26;20278;-70
2024/04/12 04:12:51;;;;;;;8.63;5.40;;;;;;;;;;5353023;26;20232;-68
2024/04/12 04:15:16;;;;;;;7.68;4.97;;;;;;;;;;5354720;26;20233;-69
2024/04/12 04:17:47;;;;;;;11.05;5.78;;;;;;;;;;5359544;26;20240;-68
2024/04/12 04:20:12;;;;;;;8.15;5.57;;;;;;;;;;5354853;26;20236;-70
2024/04/12 04:25:07;;;;;;;6.55;4.93;;;;;;;;;;5350054;26;20290;-70
2024/04/12 04:27:33;;;;;;;11.02;6.38;;;;;;;;;;5349774;26;20271;-69
2024/04/12 04:29:58;;;;;;;6.63;5.30;;;;;;;;;;5350600;26;20807;-70
2024/04/12 04:32:25;;;;;;;9.75;5.82;;;;;;;;;;5347029;26;20235;-70
2024/04/12 04:34:54;;;;;;;7.97;5.50;;;;;;;;;;5349298;26;20779;-70
2024/04/12 04:37:23;;;;;;;10.32;6.25;;;;;;;;;;5356579;26;20417;-69
2024/04/12 04:39:48;;;;;;;12.68;7.47;;;;;;;;;;5356953;26;20236;-70
2024/04/12 04:42:13;;;;;;;12.02;7.20;;;;;;;;;;5356184;26;20235;-69
2024/04/12 04:44:39;;;;;;;10.80;6.90;;;;;;;;;;5350221;26;20782;-69
2024/04/12 04:47:05;;;;;;;11.13;7.72;;;;;;;;;;5364194;26;20749;-70
2024/04/12 04:49:30;;;;;;;11.52;7.82;;;;;;;;;;5356400;26;22427;-71
2024/04/12 04:51:56;;;;;;;11.40;7.93;;;;;;;;;;5347102;26;20582;-71
2024/04/12 04:54:22;;;;;;;10.50;7.78;;;;;;;;;;5351849;26;20347;-70
2024/04/12 04:56:48;;;;;;;10.77;7.28;;;;;;;;;;5350517;26;20244;-68
2024/04/12 04:59:17;;;;;;;10.18;6.50;;;;;;;;;;5349469;26;20340;-70
2024/04/12 05:01:48;;;;;;;12.23;8.05;;;;;;;;;;5331885;26;21665;-70
2024/04/12 05:04:15;;;;;;;9.68;7.40;;;;;;;;;;5357234;26;20231;-70
2024/04/12 05:06:41;;;;;;;11.07;7.78;;;;;;;;;;5353040;26;20364;-68
2024/04/12 05:09:08;;;;;;;13.73;9.57;;;;;;;;;;5355804;26;20252;-70
2024/04/12 05:11:34;;;;;;;10.20;7.70;;;;;;;;;;5351757;26;20389;-70
2024/04/12 05:14:06;;;;;;;11.93;8.52;;;;;;;;;;5346958;26;20279;-69
2024/04/12 05:16:32;;;;;;;13.48;7.70;;;;;;;;;;5350378;26;20757;-69
2024/04/12 05:19:07;;;;;;;12.93;8.68;;;;;;;;;;5349496;26;20290;-70
2024/04/12 05:21:35;;;;;;;12.88;8.30;;;;;;;;;;5353156;26;20243;-69
2024/04/12 05:24:01;;;;;;;14.13;9.25;;;;;;;;;;5348415;26;20240;-70
2024/04/12 05:26:28;;;;;;;11.27;8.63;;;;;;;;;;5351320;26;20239;-70
2024/04/12 05:28:56;;;;;;;14.13;9.52;;;;;;;;;;5348674;26;20239;-69
2024/04/12 05:31:21;;;;;;;15.43;9.35;;;;;;;;;;5349688;26;20239;-68
2024/04/12 05:33:49;;;;;;;11.20;8.32;;;;;;;;;;5348147;26;20282;-69
2024/04/12 05:36:16;;;;;;;11.73;7.57;;;;;;;;;;5353977;26;20291;-69
2024/04/12 05:38:41;;;;;;;13.32;8.30;;;;;;;;;;5349366;26;20285;-70
2024/04/12 05:41:09;;;;;;;14.43;8.38;;;;;;;;;;5348959;26;21006;-69
2024/04/12 05:43:34;;;;;;;10.65;7.55;;;;;;;;;;5347841;26;20248;-70
2024/04/12 05:46:00;;;;;;;10.63;7.50;;;;;;;;;;5359263;26;20280;-69
2024/04/12 05:48:26;;;;;;;12.73;8.20;;;;;;;;;;5350660;26;21004;-70
2024/04/12 05:50:54;;;;;;;12.65;8.63;;;;;;;;;;5352574;26;20240;-70
2024/04/12 05:53:24;;;;;;;11.20;8.02;;;;;;;;;;5349034;26;20777;-71
2024/04/12 05:58:33;;;;;;;15.02;8.40;;;;;;;;;;5350660;26;20372;-70
2024/04/12 06:01:00;;;;;;;13.27;8.43;;;;;;;;;;5349489;26;20244;-69
2024/04/12 06:03:25;;;;;;;12.57;8.35;;;;;;;;;;5348159;26;20793;-70
2024/04/12 06:05:55;;;;;;;12.18;8.73;;;;;;;;;;5349718;26;22305;-70
2024/04/12 06:08:21;;;;;;;14.60;8.30;;;;;;;;;;5348324;26;20290;-70
2024/04/12 06:10:46;;;;;;;12.48;8.02;;;;;;;;;;5347879;26;20344;-70
2024/04/12 06:13:12;;;;;;;12.40;7.45;;;;;;;;;;5349039;26;20253;-68
2024/04/12 06:15:37;;;;;;;11.40;7.93;;;;;;;;;;5347564;26;20280;-69
2024/04/12 06:18:05;;;;;;;13.10;8.10;;;;;;;;;;5336750;26;21074;-70
2024/04/12 06:20:30;;;;;;;13.80;8.43;;;;;;;;;;5345011;26;20870;-70
2024/04/12 06:22:58;;;;;;;14.13;9.25;;;;;;;;;;5336907;26;20252;-70
2024/04/12 06:25:24;;;;;;;17.88;8.07;;;;;;;;;;5340166;26;20763;-69
2024/04/12 06:27:49;;;;;;;10.38;7.53;;;;;;;;;;5344809;26;20284;-69
2024/04/12 06:30:17;;;;;;;13.13;8.48;;;;;;;;;;5339680;26;20239;-69
2024/04/12 06:32:42;;;;;;;17.15;8.05;;;;;;;;;;5339014;26;20332;-69
2024/04/12 06:35:20;;;;;;;11.85;8.07;;;;;;;;;;5347321;26;20243;-69
2024/04/12 06:37:47;;;;;;;11.48;7.78;;;;;;;;;;5347683;26;20354;-69
2024/04/12 06:40:15;;;;;;;10.55;7.25;;;;;;;;;;5342429;26;20303;-70
2024/04/12 06:42:42;;;;;;;12.60;7.57;;;;;;;;;;5345818;26;20696;-68
2024/04/12 06:45:07;;;;;;;14.35;7.85;;;;;;;;;;5349361;26;20693;-70
2024/04/12 06:47:32;;;;;;;11.10;7.60;;;;;;;;;;5355323;26;20259;-70
2024/04/12 06:50:08;;;;;;;15.07;8.75;;;;;;;;;;5360233;26;20274;-70
2024/04/12 06:52:34;;;;;;;11.70;7.53;;;;;;;;;;5338261;26;20319;-69
2024/04/12 06:55:01;;;;;;;11.68;7.35;;;;;;;;;;5340085;26;20793;-69
2024/04/12 06:57:27;;;;;;;12.80;7.20;;;;;;;;;;5338476;26;20358;-69
2024/04/12 06:59:53;;;;;;;15.45;7.20;;;;;;;;;;5339235;26;20286;-68
2024/04/12 07:02:23;;;;;;;15.25;7.80;;;;;;;;;;5338750;26;20310;-70
2024/04/12 07:04:49;;;;;;;11.32;7.07;;;;;;;;;;5346537;26;20267;-68
2024/04/12 07:07:22;;;;;;;13.55;7.32;;;;;;;;;;5344748;26;20358;-70
2024/04/12 07:09:48;;;;;;;7.95;6.10;;;;;;;;;;5341822;26;20232;-70
2024/04/12 07:12:14;;;;;;;12.80;7.18;;;;;;;;;;5338691;26;20377;-69
2024/04/12 07:14:41;;;;;;;15.82;6.63;;;;;;;;;;5348410;26;20248;-70
2024/04/12 07:17:19;;;;;;;9.38;6.53;;;;;;;;;;5343179;26;20287;-69
2024/04/12 07:19:49;;;;;;;9.65;6.10;;;;;;;;;;5344866;26;20236;-70
2024/04/12 07:22:18;;;;;;;8.07;5.75;;;;;;;;;;5357793;26;20239;-69
2024/04/12 07:24:47;;;;;;;12.90;6.55;;;;;;;;;;5366767;26;20235;-70
2024/04/12 07:27:15;;;;;;;10.40;5.88;;;;;;;;;;5342862;26;20278;-70
2024/04/12 07:29:43;;;;;;;11.10;5.70;;;;;;;;;;5341713;26;20251;-70
2024/04/12 07:32:09;;;;;;;8.73;5.35;;;;;;;;;;5342114;26;20341;-69
2024/04/12 07:34:44;;;;;;;9.13;5.63;;;;;;;;;;5343030;26;20255;-69
2024/04/12 07:37:12;;;;;;;15.82;6.55;;;;;;;;;;5346567;26;20252;-69
2024/04/12 07:39:40;;;;;;;12.98;5.38;;;;;;;;;;5344484;26;20235;-70
2024/04/12 07:42:08;;;;;;;14.48;5.43;;;;;;;;;;5351243;26;20285;-70
2024/04/12 07:44:35;;;;;;;9.52;5.53;;;;;;;;;;5354080;26;20697;-70
2024/04/12 07:47:06;;;;;;;12.68;5.22;;;;;;;;;;5349148;26;20734;-68
2024/04/12 07:49:39;;;;;;;9.30;5.30;;;;;;;;;;5371580;26;20253;-70
2024/04/12 07:52:09;;;;;;;7.88;5.55;;;;;;;;;;5346778;26;20228;-70
2024/04/12 07:54:35;;;;;;;9.25;5.40;;;;;;;;;;5344425;26;20236;-68
2024/04/12 07:57:07;;;;;;;8.95;4.95;;;;;;;;;;5347215;26;20289;-69
2024/04/12 07:59:37;;;;;;;7.72;4.88;;;;;;;;;;5346648;26;20239;-69
2024/04/12 08:02:05;;;;;;;8.10;4.78;;;;;;;;;;5346124;26;21493;-70
2024/04/12 08:04:36;;;;;;;9.50;5.47;;;;;;;;;;5345956;26;20236;-70
2024/04/12 08:07:06;;;;;;;9.23;5.13;;;;;;;;;;5347280;26;20240;-69
2024/04/12 08:09:34;;;;;;;8.63;4.82;;;;;;;;;;5342832;26;20227;-70
2024/04/12 08:12:14;;;;;;;13.73;5.10;;;;;;;;;;5339710;26;20232;-68
2024/04/12 08:14:52;;;;;;;7.03;4.28;;;;;;;;;;5345062;26;20298;-69
2024/04/12 08:17:23;;;;;;;9.85;4.75;;;;;;;;;;5347213;26;20711;-68
2024/04/12 08:19:49;;;;;;;10.73;4.95;;;;;;;;;;5342156;26;20649;-70
2024/04/12 08:22:18;;;;;;;8.70;4.72;;;;;;;;;;5357666;26;20267;-69
2024/04/12 08:24:49;;;;;;;7.20;4.30;;;;;;;;;;5343037;26;20231;-69
2024/04/12 08:27:18;;;;;;;11.93;5.13;;;;;;;;;;5348986;26;20236;-68
2024/04/12 08:29:44;;;;;;;9.40;4.70;;;;;;;;;;5342866;26;20282;-69
2024/04/12 08:34:36;;;;;;;10.77;5.30;;;;;;;;;;5341491;26;20601;-70
2024/04/12 08:37:12;;;;;;;7.28;4.85;;;;;;;;;;5342721;26;20798;-69
2024/04/12 08:39:43;;;;;;;11.20;4.40;;;;;;;;;;5349543;26;20302;-70
2024/04/12 08:42:10;;;;;;;8.45;5.35;;;;;;;;;;5340358;26;20236;-70
2024/04/12 08:44:36;;;;;;;9.55;5.07;;;;;;;;;;5345832;26;20274;-70
2024/04/12 08:49:48;;;;;;;12.80;4.72;;;;;;;;;;5340805;26;20259;-70
2024/04/12 08:52:24;;;;;;;8.95;5.45;;;;;;;;;;5343529;26;20287;-70
2024/04/12 08:54:54;;;;;;;8.63;4.20;;;;;;;;;;5345611;26;20235;-69
2024/04/12 08:57:21;;;;;;;8.23;3.88;;;;;;;;;;5346208;26;20244;-68
2024/04/12 08:59:46;;;;;;;7.38;4.57;;;;;;;;;;5340601;26;20228;-71
2024/04/12 09:02:13;;;;;;;4.82;3.33;;;;;;;;;;5342998;26;20239;-70
2024/04/12 09:04:39;;;;;;;6.03;3.42;;;;;;;;;;5341846;26;20274;-70
2024/04/12 09:07:05;;;;;;;9.23;4.13;;;;;;;;;;5343031;26;20615;-71
2024/04/12 09:09:30;;;;;;;8.35;3.50;;;;;;;;;;5344382;26;20227;-70
2024/04/12 09:11:55;;;;;;;7.60;3.30;;;;;;;;;;5343098;26;20353;-70
2024/04/12 09:14:23;;;;;;;6.47;3.88;;;;;;;;;;5342474;26;21267;-69
2024/04/12 09:16:48;;;;;;;10.77;3.50;;;;;;;;;;5356707;21;20255;-68
2024/04/12 09:19:14;;;;;;;7.80;4.25;;;;;;;;;;5392895;26;20243;-68
2024/04/12 09:21:51;;;;;;;6.70;3.30;;;;;;;;;;5401029;26;20264;-68
2024/04/12 09:24:21;;;;;;;5.30;3.00;;;;;;;;;;5388162;26;20249;-69
2024/04/12 09:26:58;;;;;;;4.93;3.13;;;;;;;;;;5385685;26;22119;-68
2024/04/12 09:29:29;;;;;;;8.93;3.30;;;;;;;;;;5378127;26;20281;-69
2024/04/12 09:34:41;;;;;;;7.88;3.17;;;;;;;;;;5378788;26;20368;-69
2024/04/12 09:37:28;;;;;;;6.25;3.28;;;;;;;;;;5381010;26;20250;-70
2024/04/12 09:42:28;;;;;;;4.63;2.63;;;;;;;;;;5383237;26;20997;-68
2024/04/12 09:44:59;;;;;;;6.43;3.53;;;;;;;;;;5379609;26;20277;-68
2024/04/12 10:39:44;;;;;;;2.53;0.98;;;;;;;;;;5374864;26;20361;-69
2024/04/12 10:42:11;;;;;;;3.30;1.10;;;;;;;;;;5381363;26;20235;-68
2024/04/12 10:44:36;;;;;;;2.90;1.15;;;;;;;;;;5377547;26;20235;-68
2024/04/12 10:47:01;;;;;;;3.50;1.00;;;;;;;;;;5382342;26;20688;-69
2024/04/12 10:49:26;;;;;;;1.95;1.30;;;;;;;;;;5373897;26;20608;-68
2024/04/12 10:51:52;;;;;;;2.00;1.10;;;;;;;;;;5375742;26;20290;-68
2024/04/12 10:54:23;;;;;;;2.28;0.77;;;;;;;;;;5381104;26;20483;-68
2024/04/12 10:56:49;;;;;;;5.68;0.98;;;;;;;;;;5376945;26;20319;-68
2024/04/12 10:59:26;;;;;;;1.58;0.98;;;;;;;;;;5376370;26;21269;-69
2024/04/12 11:01:53;;;;;;;1.70;1.23;;;;;;;;;;5376757;26;20733;-67
2024/04/12 11:04:18;;;;;;;3.70;0.98;;;;;;;;;;5391508;26;20282;-68
2024/04/12 11:06:44;;;;;;;3.92;1.45;;;;;;;;;;5381067;26;20242;-68
2024/04/12 11:09:14;;;;;;;1.77;0.93;;;;;;;;;;5383827;26;20254;-69
2024/04/12 11:11:43;;;;;;;2.88;0.98;;;;;;;;;;5379485;26;20282;-68
2024/04/12 11:14:15;;;;;;;3.33;0.63;;;;;;;;;;5368727;26;20243;-67
2024/04/12 11:33:31;;;;;;;3.30;1.08;;;;;;;;;;5381613;26;20277;-67
2024/04/12 11:36:03;;;;;;;3.25;1.10;;;;;;;;;;5394245;26;20239;-68
2024/04/12 11:38:33;;;;;;;2.22;1.17;;;;;;;;;;5406446;26;20637;-67
2024/04/12 11:40:58;;;;;;;1.30;0.90;;;;;;;;;;5361371;26;20240;-67
2024/04/12 11:43:25;;;;;;;2.22;0.95;;;;;;;;;;5389551;26;20242;-68
2024/04/12 11:45:50;;;;;;;1.45;0.73;;;;;;;;;;5378953;26;20246;-67
2024/04/12 11:48:15;;;;;;;1.63;0.80;;;;;;;;;;5382727;26;20238;-68
2024/04/12 11:50:43;;;;;;;2.05;0.90;;;;;;;;;;5380754;26;20475;-68
2024/04/12 11:53:10;;;;;;;3.10;0.90;;;;;;;;;;5379208;26;20282;-69
2024/04/12 11:55:42;;;;;;;3.47;1.05;;;;;;;;;;5378904;26;20247;-69
2024/04/12 11:58:09;;;;;;;1.05;0.68;;;;;;;;;;5379668;26;20239;-67
2024/04/12 12:00:37;;;;;;;2.30;0.88;;;;;;;;;;5378734;26;20227;-68
2024/04/12 12:03:02;;;;;;;1.95;1.05;;;;;;;;;;5379404;26;20310;-67
2024/04/12 12:05:28;;;;;;;4.78;0.88;;;;;;;;;;5384432;26;20250;-68
2024/04/12 12:07:54;;;;;;;3.03;1.27;;;;;;;;;;5386018;26;20970;-68
2024/04/12 12:10:19;;;;;;;3.10;0.80;;;;;;;;;;5378982;26;20319;-67
2024/04/12 12:12:45;;;;;;;2.35;0.90;;;;;;;;;;5381349;26;20866;-68
2024/04/12 12:15:10;;;;;;;1.08;0.70;;;;;;;;;;5380215;26;20242;-68
2024/04/12 12:17:35;;;;;;;1.67;0.88;;;;;;;;;;5382795;26;20982;-68
2024/04/12 12:20:01;;;;;;;4.22;1.38;;;;;;;;;;5384355;26;20334;-68
2024/04/12 12:22:26;;;;;;;1.30;0.68;;;;;;;;;;5385527;26;20284;-68
2024/04/12 12:24:53;;;;;;;2.15;0.77;;;;;;;;;;5382341;26;20339;-69
2024/04/12 12:27:23;;;;;;;2.55;0.93;;;;;;;;;;5384078;26;20246;-68
2024/04/12 12:29:51;;;;;;;3.60;0.47;;;;;;;;;;5383651;26;20235;-68
2024/04/12 12:32:16;;;;;;;1.42;0.65;;;;;;;;;;5385032;26;20239;-68
2024/04/12 12:34:46;;;;;;;3.15;1.70;;;;;;;;;;5384442;26;20309;-67
2024/04/12 12:37:12;;;;;;;17.58;16.00;;;;;;;;;;5383733;26;20231;-68
2024/04/12 12:39:37;;;;;;;2.20;1.45;;;;;;;;;;5384823;26;20765;-69
2024/04/12 12:42:03;;;;;;;2.20;0.80;;;;;;;;;;5383799;26;20741;-68
2024/04/12 12:44:28;;;;;;;1.02;0.40;;;;;;;;;;5380322;26;20270;-68
2024/04/12 12:46:59;;;;;;;1.27;0.50;;;;;;;;;;5387751;26;20235;-68
2024/04/12 12:49:25;;;;;;;2.78;0.57;;;;;;;;;;5383094;26;20234;-68
2024/04/12 12:51:50;;;;;;;0.90;0.57;;;;;;;;;;5385569;26;20234;-68
2024/04/12 12:54:18;;;;;;;2.58;1.13;;;;;;;;;;5383761;26;20355;-68
2024/04/12 12:56:43;;;;;;;1.15;0.47;;;;;;;;;;5382985;26;20731;-68
2024/04/12 12:59:08;;;;;;;1.00;0.70;;;;;;;;;;5383594;26;20286;-67
2024/04/12 13:01:41;;;;;;;5.20;1.23;;;;;;;;;;5382286;26;20239;-67
2024/04/12 13:04:07;;;;;;;1.85;0.73;;;;;;;;;;5383142;26;21045;-67
2024/04/12 13:06:35;;;;;;;3.53;1.35;;;;;;;;;;5382618;26;20278;-67
2024/04/12 13:09:03;;;;;;;7.18;2.25;;;;;;;;;;5386230;26;20261;-69
2024/04/12 13:11:28;;;;;;;5.57;5.10;;;;;;;;;;5387280;26;20289;-67
2024/04/12 13:13:53;;;;;;;6.47;4.80;;;;;;;;;;5385117;26;20243;-68
2024/04/12 13:16:19;;;;;;;8.65;7.80;;;;;;;;;;5384292;26;20472;-67
2024/04/12 13:18:52;;;;;;;4.82;1.58;;;;;;;;;;5382534;26;20239;-68
2024/04/12 13:21:18;;;;;;;1.17;0.68;;;;;;;;;;5388322;26;20288;-67
2024/04/12 13:23:43;;;;;;;1.02;0.82;;;;;;;;;;5388025;26;20744;-68
2024/04/12 13:26:08;;;;;;;1.45;0.70;;;;;;;;;;5382601;26;21273;-68
2024/04/12 13:28:34;;;;;;;2.08;0.50;;;;;;;;;;5382666;26;20239;-67
2024/04/12 13:31:00;;;;;;;2.38;1.02;;;;;;;;;;5388121;26;20281;-68
2024/04/12 13:33:25;;;;;;;2.95;1.00;;;;;;;;;;5384071;26;23126;-67
2024/04/12 13:35:52;;;;;;;2.37;1.80;;;;;;;;;;5381444;26;20238;-68
2024/04/12 13:38:17;;;;;;;5.38;1.10;;;;;;;;;;5383738;26;20951;-67
2024/04/12 13:40:45;;;;;;;1.90;1.10;;;;;;;;;;5406003;26;20247;-68
2024/04/12 13:43:14;;;;;;;2.15;1.00;;;;;;;;;;5407185;26;20243;-68
2024/04/12 13:51:10;;;;;;;2.40;0.90;;;;;;;;;;5408929;26;20328;-68
2024/04/12 13:53:38;;;;;;;15.38;6.70;;;;;;;;;;5400909;26;20236;-68
2024/04/12 13:58:58;;;;;;;35.83;22.52;;;;;;;;;;5381924;26;20281;-68
2024/04/12 14:01:24;;;;;;;27.25;17.73;;;;;;;;;;5385309;26;20234;-68
2024/04/12 14:03:49;;;;;;;16.65;11.48;;;;;;;;;;5381722;26;20262;-69
2024/04/12 14:06:14;;;;;;;6.43;4.47;;;;;;;;;;5380832;26;20436;-68
2024/04/12 14:08:40;;;;;;;4.07;3.05;;;;;;;;;;5381370;26;20460;-70
2024/04/12 14:11:05;;;;;;;8.23;4.00;;;;;;;;;;5385709;26;20266;-68
2024/04/12 14:13:30;;;;;;;2.65;2.10;;;;;;;;;;5382668;26;20231;-68
2024/04/12 14:15:57;;;;;;;2.30;0.95;;;;;;;;;;5382311;26;20247;-68
2024/04/12 14:18:23;;;;;;;2.05;0.60;;;;;;;;;;5411013;26;20551;-69
2024/04/12 14:20:49;;;;;;;1.55;0.93;;;;;;;;;;5391838;26;20737;-69
2024/04/12 14:23:14;;;;;;;2.50;1.05;;;;;;;;;;5383688;26;20238;-69
2024/04/12 14:25:39;;;;;;;2.45;0.73;;;;;;;;;;5383351;26;20630;-67
2024/04/12 14:28:04;;;;;;;3.25;0.93;;;;;;;;;;5381394;26;20236;-67
2024/04/12 14:30:29;;;;;;;2.53;0.75;;;;;;;;;;5381396;26;20231;-68
2024/04/12 14:32:55;;;;;;;0.80;0.55;;;;;;;;;;5382876;26;20227;-69
2024/04/12 14:35:22;;;;;;;1.03;0.60;;;;;;;;;;5382887;26;20641;-70
2024/04/12 14:37:47;;;;;;;0.68;0.60;;;;;;;;;;5381285;26;20525;-68
2024/04/12 14:40:19;;;;;;;2.10;1.00;;;;;;;;;;5385082;26;20613;-68
2024/04/12 14:42:46;;;;;;;4.65;1.85;;;;;;;;;;5380992;26;20234;-68
2024/04/12 14:45:11;;;;;;;2.45;1.60;;;;;;;;;;5383596;26;20289;-68
2024/04/12 14:47:40;;;;;;;1.55;0.93;;;;;;;;;;5386543;26;20769;-67
2024/04/12 14:50:07;;;;;;;1.30;0.73;;;;;;;;;;5382566;26;20278;-68
2024/04/12 14:52:33;;;;;;;1.40;1.02;;;;;;;;;;5382159;26;20317;-68
2024/04/12 14:54:58;;;;;;;1.50;0.80;;;;;;;;;;5382162;26;21013;-68
2024/04/12 14:57:23;;;;;;;2.72;0.98;;;;;;;;;;5386797;26;20281;-68
2024/04/12 14:59:49;;;;;;;2.00;0.73;;;;;;;;;;5384932;26;20945;-68
2024/04/12 15:02:15;;;;;;;1.98;0.90;;;;;;;;;;5381471;26;20347;-68
2024/04/12 15:48:30;;;;;;;2.38;1.02;;;;;;;;;;5338242;26;20270;-70
2024/04/12 15:50:55;;;;;;;2.25;1.35;;;;;;;;;;5315741;26;20278;-69
2024/04/12 15:53:29;;;;;;;2.55;1.23;;;;;;;;;;5315329;26;20288;-70
2024/04/12 16:12:14;;;;;;;3.05;1.50;;;;;;;;;;5340250;26;20270;-70
2024/04/12 16:14:39;;;;;;;2.50;1.13;;;;;;;;;;5336637;26;20236;-70
2024/04/12 16:17:04;;;;;;;3.53;1.23;;;;;;;;;;5334835;26;20337;-68
2024/04/12 16:19:30;;;;;;;1.20;0.80;;;;;;;;;;5350074;26;21112;-72
2024/04/12 16:21:55;;;;;;;2.95;1.17;;;;;;;;;;5344448;26;20783;-69
2024/04/12 16:24:20;;;;;;;1.57;0.90;;;;;;;;;;5339613;26;20772;-69
2024/04/12 16:26:46;;;;;;;3.30;1.17;;;;;;;;;;5340632;26;20522;-70
2024/04/12 16:29:11;;;;;;;2.67;1.08;;;;;;;;;;5315886;26;20283;-69
2024/04/12 16:31:36;;;;;;;1.60;1.00;;;;;;;;;;5337189;26;20240;-69
2024/04/12 16:34:02;;;;;;;2.28;1.27;;;;;;;;;;5336526;26;20241;-69
2024/04/12 16:36:27;;;;;;;4.60;1.92;;;;;;;;;;5336264;26;20251;-70
2024/04/12 16:38:53;;;;;;;2.53;1.55;;;;;;;;;;5335930;26;20759;-69
2024/04/12 16:41:19;;;;;;;2.92;1.17;;;;;;;;;;5336760;26;20380;-70
2024/04/12 16:43:45;;;;;;;2.65;1.20;;;;;;;;;;5337765;26;20240;-70
2024/04/12 16:46:11;;;;;;;2.55;0.88;;;;;;;;;;5306475;26;20278;-70
2024/04/12 16:48:37;;;;;;;3.00;1.00;;;;;;;;;;5339760;26;20236;-71
2024/04/12 16:51:03;;;;;;;1.42;1.15;;;;;;;;;;5339549;26;20288;-70
2024/04/12 16:53:31;;;;;;;2.05;1.15;;;;;;;;;;5326783;26;20251;-71
2024/04/12 16:55:57;;;;;;;4.93;0.82;;;;;;;;;;5324931;26;20346;-70
2024/04/12 16:58:25;;;;;;;1.92;0.98;;;;;;;;;;5339278;26;20236;-71
2024/04/12 17:00:50;;;;;;;1.42;0.75;;;;;;;;;;5337928;26;20244;-71
2024/04/12 17:03:16;;;;;;;2.40;1.03;;;;;;;;;;5336792;26;20288;-70
2024/04/12 17:05:41;;;;;;;3.92;1.25;;;;;;;;;;5313693;26;20554;-70
2024/04/12 17:08:06;;;;;;;2.92;1.10;;;;;;;;;;5337636;26;20241;-70
2024/04/12 17:10:32;;;;;;;2.53;1.52;;;;;;;;;;5334450;26;20274;-69
2024/04/12 17:12:57;;;;;;;1.73;0.93;;;;;;;;;;5337473;26;20279;-71
2024/04/12 17:15:22;;;;;;;3.42;1.02;;;;;;;;;;5337125;26;20976;-71